Time;durP1;ratioP1;P1;durP2;ratioP2;P2;SDS_P1;SDS_P2;PMS_P1;PMS_P2;Temp;Humidity;BMP_temperature;BMP_pressure;BME280_temperature;BME280_humidity;BME280_pressure;Samples;Min_cycle;Max_cycle;Signal;HPM_P1;HPM_P2
2022/09/22 00:01:01;;;;;;;0.50;0.50;;;10.30;99.90;;;;;;5024249;28;20206;-63
2022/09/22 00:03:30;;;;;;;0.50;0.50;;;10.30;99.90;;;;;;5028023;28;20229;-62
2022/09/22 00:06:03;;;;;;;0.60;0.60;;;10.30;99.90;;;;;;5018548;28;20243;-63
2022/09/22 00:08:33;;;;;;;0.60;0.60;;;10.30;99.90;;;;;;5030298;28;20197;-63
2022/09/22 00:11:02;;;;;;;1.50;0.70;;;10.20;99.90;;;;;;5022813;28;20224;-62
2022/09/22 00:13:29;;;;;;;0.43;0.43;;;10.20;99.90;;;;;;5028525;28;20228;-63
2022/09/22 00:15:56;;;;;;;0.60;0.60;;;10.20;99.90;;;;;;5027824;28;20412;-63
2022/09/22 00:18:23;;;;;;;0.50;0.50;;;10.10;99.90;;;;;;5025641;28;20617;-63
2022/09/22 00:20:50;;;;;;;0.60;0.60;;;10.10;99.90;;;;;;5025734;28;20247;-63
2022/09/22 00:23:17;;;;;;;0.50;0.50;;;10.20;99.90;;;;;;5027074;28;20312;-62
2022/09/22 00:25:45;;;;;;;0.50;0.50;;;10.20;99.90;;;;;;5026367;28;20208;-63
2022/09/22 00:28:12;;;;;;;0.40;0.40;;;10.10;99.90;;;;;;5029248;28;20681;-63
2022/09/22 00:30:41;;;;;;;0.43;0.43;;;10.20;99.90;;;;;;5019648;28;20204;-62
2022/09/22 00:33:09;;;;;;;0.60;0.60;;;10.20;99.90;;;;;;5019488;28;20221;-63
2022/09/22 00:35:36;;;;;;;0.47;0.47;;;10.20;99.90;;;;;;5026247;28;20197;-62
2022/09/22 00:38:05;;;;;;;0.70;0.70;;;10.20;99.90;;;;;;5023974;28;20201;-62
2022/09/22 00:40:33;;;;;;;0.63;0.63;;;10.30;99.90;;;;;;5024189;28;20202;-63
2022/09/22 00:43:15;;;;;;;0.40;0.40;;;10.30;99.90;;;;;;5022910;28;20235;-64
2022/09/22 00:45:43;;;;;;;0.70;0.70;;;10.30;99.90;;;;;;5023233;28;20200;-64
2022/09/22 00:48:10;;;;;;;0.77;0.60;;;10.20;99.90;;;;;;5030176;28;20211;-62
2022/09/22 00:50:37;;;;;;;0.60;0.60;;;10.20;99.90;;;;;;5024468;28;20211;-62
2022/09/22 00:53:08;;;;;;;0.47;0.47;;;10.10;99.90;;;;;;5026655;28;20224;-62
2022/09/22 00:55:40;;;;;;;0.60;0.60;;;10.10;99.90;;;;;;5027815;28;20303;-61
2022/09/22 00:58:13;;;;;;;0.53;0.53;;;10.20;99.90;;;;;;5029108;28;20697;-62
2022/09/22 01:00:41;;;;;;;0.77;0.60;;;10.20;99.90;;;;;;5025170;28;20201;-63
2022/09/22 01:03:13;;;;;;;0.50;0.50;;;10.10;99.90;;;;;;5021507;28;20232;-63
2022/09/22 01:05:41;;;;;;;0.40;0.40;;;10.10;99.90;;;;;;5025808;28;20219;-63
2022/09/22 01:08:08;;;;;;;0.47;0.47;;;10.00;99.90;;;;;;5023112;28;20214;-63
2022/09/22 01:10:35;;;;;;;0.50;0.50;;;10.00;99.90;;;;;;5030276;28;20201;-64
2022/09/22 01:13:10;;;;;;;0.50;0.40;;;10.00;99.90;;;;;;5024260;28;20248;-63
2022/09/22 01:15:47;;;;;;;0.40;0.40;;;10.00;99.90;;;;;;5033172;28;20200;-62
2022/09/22 01:18:24;;;;;;;0.43;0.43;;;10.00;99.90;;;;;;5023020;28;20204;-62
2022/09/22 01:21:18;;;;;;;0.60;0.60;;;10.00;99.90;;;;;;5024803;28;20200;-62
2022/09/22 01:24:18;;;;;;;0.60;0.60;;;10.00;99.90;;;;;;5013892;28;20216;-63
2022/09/22 01:27:25;;;;;;;0.70;0.70;;;9.90;99.90;;;;;;5018985;28;20668;-62
2022/09/22 01:30:29;;;;;;;0.37;0.37;;;9.90;99.90;;;;;;5020175;28;20201;-61
2022/09/22 01:33:12;;;;;;;0.60;0.60;;;9.80;99.90;;;;;;5004821;28;20213;-62
2022/09/22 01:35:48;;;;;;;0.60;0.60;;;9.70;99.90;;;;;;5010493;28;20200;-63
2022/09/22 01:38:24;;;;;;;0.60;0.60;;;9.70;99.90;;;;;;5023182;28;20195;-63
2022/09/22 01:40:55;;;;;;;0.50;0.50;;;9.70;99.90;;;;;;5028446;28;20682;-61
2022/09/22 01:43:36;;;;;;;0.60;0.60;;;9.60;99.90;;;;;;5024870;28;20320;-63
2022/09/22 01:46:10;;;;;;;0.47;0.47;;;9.40;99.90;;;;;;5024725;28;20266;-62
2022/09/22 01:48:43;;;;;;;0.53;0.53;;;9.40;99.90;;;;;;5024228;28;20196;-62
2022/09/22 01:51:14;;;;;;;0.40;0.40;;;9.30;99.90;;;;;;5026305;28;20638;-63
2022/09/22 01:53:46;;;;;;;0.50;0.50;;;9.20;99.90;;;;;;5021419;28;20220;-63
2022/09/22 01:56:15;;;;;;;0.63;0.63;;;9.20;99.90;;;;;;5027784;28;20201;-62
2022/09/22 01:58:48;;;;;;;0.77;0.77;;;9.30;99.90;;;;;;5026966;28;20207;-62
2022/09/22 02:01:18;;;;;;;0.77;0.77;;;9.30;99.90;;;;;;5020356;28;20202;-62
2022/09/22 02:03:49;;;;;;;0.50;0.50;;;9.30;99.90;;;;;;5028341;28;20231;-63
2022/09/22 02:06:19;;;;;;;0.50;0.50;;;9.20;99.90;;;;;;5021550;28;20265;-62
2022/09/22 02:08:53;;;;;;;0.60;0.60;;;9.30;99.90;;;;;;5030181;28;20291;-62
2022/09/22 02:11:22;;;;;;;1.23;0.70;;;9.30;99.90;;;;;;5022868;28;20574;-62
2022/09/22 02:13:49;;;;;;;0.50;0.50;;;9.30;99.90;;;;;;5032328;28;20591;-64
2022/09/22 02:16:20;;;;;;;0.40;0.40;;;9.30;99.90;;;;;;5024107;28;20208;-63
2022/09/22 02:18:50;;;;;;;0.67;0.50;;;9.20;99.90;;;;;;5027095;28;20565;-63
2022/09/22 02:21:19;;;;;;;0.40;0.40;;;9.30;99.90;;;;;;5028367;28;20292;-63
2022/09/22 02:23:47;;;;;;;0.50;0.50;;;9.20;99.90;;;;;;5028000;28;20298;-62
2022/09/22 02:26:22;;;;;;;0.57;0.57;;;9.20;99.90;;;;;;5029910;28;20201;-62
2022/09/22 02:28:51;;;;;;;1.07;0.90;;;9.20;99.90;;;;;;5029663;28;20219;-63
2022/09/22 02:31:21;;;;;;;0.43;0.43;;;9.10;99.90;;;;;;5032669;28;20205;-63
2022/09/22 02:33:50;;;;;;;0.50;0.50;;;9.10;99.90;;;;;;5029943;28;20311;-63
2022/09/22 02:36:41;;;;;;;0.50;0.50;;;9.10;99.90;;;;;;5024415;28;20300;-63
2022/09/22 02:39:12;;;;;;;0.60;0.60;;;9.00;99.90;;;;;;5030190;28;20201;-64
2022/09/22 02:41:52;;;;;;;0.40;0.40;;;9.00;99.90;;;;;;5024498;28;20201;-63
2022/09/22 02:44:22;;;;;;;0.50;0.50;;;8.80;99.90;;;;;;5024067;28;20235;-63
2022/09/22 02:46:57;;;;;;;0.60;0.60;;;8.70;99.90;;;;;;5030891;28;20533;-62
2022/09/22 02:49:26;;;;;;;0.53;0.53;;;8.70;99.90;;;;;;5025183;28;20642;-63
2022/09/22 02:51:53;;;;;;;0.57;0.57;;;8.70;99.90;;;;;;5031649;28;20287;-62
2022/09/22 02:54:20;;;;;;;0.57;0.57;;;8.70;99.90;;;;;;5026379;28;20225;-63
2022/09/22 02:56:47;;;;;;;0.60;0.60;;;8.60;99.90;;;;;;5033768;28;20215;-63
2022/09/22 02:59:14;;;;;;;0.80;0.80;;;8.50;99.90;;;;;;5025417;28;20217;-62
2022/09/22 03:01:41;;;;;;;0.50;0.50;;;8.50;99.90;;;;;;5026278;28;20196;-62
2022/09/22 03:04:09;;;;;;;0.60;0.60;;;8.50;99.90;;;;;;5027304;28;20239;-63
2022/09/22 03:06:37;;;;;;;0.67;0.67;;;8.50;99.90;;;;;;5027063;28;20201;-63
2022/09/22 03:09:04;;;;;;;0.60;0.60;;;8.50;99.90;;;;;;5030138;28;20236;-64
2022/09/22 03:11:31;;;;;;;0.60;0.60;;;8.50;99.90;;;;;;5026535;28;20292;-63
2022/09/22 03:13:58;;;;;;;0.70;0.70;;;8.50;99.90;;;;;;5030644;28;20231;-63
2022/09/22 03:16:24;;;;;;;0.53;0.53;;;8.50;99.90;;;;;;5025072;28;20208;-63
2022/09/22 03:18:51;;;;;;;0.67;0.67;;;8.50;99.90;;;;;;5025667;28;20196;-63
2022/09/22 03:21:20;;;;;;;0.57;0.57;;;8.50;99.90;;;;;;5026595;28;20213;-63
2022/09/22 03:23:46;;;;;;;0.80;0.80;;;8.50;99.90;;;;;;5026512;28;20231;-62
2022/09/22 03:26:13;;;;;;;0.50;0.50;;;8.50;99.90;;;;;;5027561;28;20204;-62
2022/09/22 03:28:42;;;;;;;0.87;0.87;;;8.50;99.90;;;;;;5027341;28;20243;-63
2022/09/22 03:31:09;;;;;;;0.60;0.60;;;8.40;99.90;;;;;;5026613;28;20651;-62
2022/09/22 03:33:36;;;;;;;0.80;0.77;;;8.40;99.90;;;;;;5024575;28;20578;-62
2022/09/22 03:36:03;;;;;;;1.33;0.70;;;8.30;99.90;;;;;;5027092;28;20205;-63
2022/09/22 03:38:32;;;;;;;1.10;1.03;;;8.30;99.90;;;;;;5028366;28;20207;-62
2022/09/22 03:41:00;;;;;;;0.63;0.63;;;8.30;99.90;;;;;;5025274;28;20644;-62
2022/09/22 03:43:27;;;;;;;0.70;0.70;;;8.30;99.90;;;;;;5031121;28;20236;-62
2022/09/22 03:45:57;;;;;;;0.80;0.80;;;8.30;99.90;;;;;;5036719;28;20268;-61
2022/09/22 03:48:24;;;;;;;0.70;0.70;;;8.30;99.90;;;;;;5036380;28;20304;-63
2022/09/22 03:50:51;;;;;;;0.63;0.63;;;8.30;99.90;;;;;;5028050;28;20196;-63
2022/09/22 03:53:18;;;;;;;0.70;0.70;;;8.30;99.90;;;;;;5031572;28;20225;-63
2022/09/22 03:55:46;;;;;;;0.53;0.53;;;8.30;99.90;;;;;;5027496;28;20213;-63
2022/09/22 03:58:13;;;;;;;0.70;0.70;;;8.30;99.90;;;;;;5030728;28;20209;-63
2022/09/22 04:00:40;;;;;;;0.60;0.60;;;8.30;99.90;;;;;;5019997;28;20300;-62
2022/09/22 04:03:07;;;;;;;0.70;0.70;;;8.30;99.90;;;;;;5027029;28;20319;-62
2022/09/22 04:05:34;;;;;;;0.67;0.67;;;8.20;99.90;;;;;;5026962;28;20247;-64
2022/09/22 04:08:01;;;;;;;0.70;0.70;;;8.20;99.90;;;;;;5027447;28;20203;-65
2022/09/22 04:10:28;;;;;;;0.67;0.67;;;8.10;99.90;;;;;;5029802;28;20211;-64
2022/09/22 04:12:56;;;;;;;0.70;0.70;;;8.10;99.90;;;;;;5040110;22;20236;-66
2022/09/22 04:15:23;;;;;;;0.50;0.50;;;8.10;99.90;;;;;;5020251;28;20196;-67
2022/09/22 04:17:50;;;;;;;0.80;0.80;;;8.10;99.90;;;;;;5029942;28;20200;-66
2022/09/22 04:20:18;;;;;;;0.60;0.60;;;8.20;99.90;;;;;;5036791;28;20215;-65
2022/09/22 04:22:44;;;;;;;0.83;0.60;;;8.20;99.90;;;;;;5037552;28;20221;-67
2022/09/22 04:25:11;;;;;;;0.80;0.80;;;8.20;99.90;;;;;;5036023;28;20268;-64
2022/09/22 04:27:38;;;;;;;0.73;0.73;;;8.20;99.90;;;;;;5015044;28;20204;-67
2022/09/22 04:30:08;;;;;;;0.50;0.50;;;8.30;99.90;;;;;;5021456;28;20215;-65
2022/09/22 04:32:35;;;;;;;0.70;0.70;;;8.20;99.90;;;;;;5031811;28;20230;-67
2022/09/22 04:35:02;;;;;;;0.77;0.77;;;8.30;99.90;;;;;;5027301;28;20650;-67
2022/09/22 04:37:28;;;;;;;0.70;0.70;;;8.30;99.90;;;;;;5027219;28;20292;-67
2022/09/22 04:39:55;;;;;;;0.57;0.57;;;8.30;99.90;;;;;;5031167;28;20227;-66
2022/09/22 04:42:22;;;;;;;0.67;0.67;;;8.30;99.90;;;;;;5028581;28;20741;-67
2022/09/22 04:44:49;;;;;;;0.80;0.80;;;8.30;99.90;;;;;;5026894;28;20813;-67
2022/09/22 04:47:17;;;;;;;0.60;0.60;;;8.40;99.90;;;;;;5034033;28;20215;-67
2022/09/22 04:49:44;;;;;;;0.60;0.60;;;8.40;99.90;;;;;;5025245;28;20205;-67
2022/09/22 04:52:11;;;;;;;0.80;0.80;;;8.40;99.90;;;;;;5029697;28;20316;-65
2022/09/22 04:54:38;;;;;;;0.63;0.63;;;8.40;99.90;;;;;;5025970;28;20287;-66
2022/09/22 04:57:05;;;;;;;0.83;0.83;;;8.40;99.90;;;;;;5030901;28;20327;-65
2022/09/22 04:59:31;;;;;;;0.60;0.60;;;8.40;99.90;;;;;;5025459;28;20868;-65
2022/09/22 05:01:58;;;;;;;0.70;0.70;;;8.40;99.90;;;;;;5025268;28;20211;-65
2022/09/22 05:04:27;;;;;;;4.50;1.27;;;8.40;99.90;;;;;;5028739;28;20320;-65
2022/09/22 05:06:55;;;;;;;0.83;0.83;;;8.50;99.90;;;;;;5020519;28;20204;-65
2022/09/22 05:09:22;;;;;;;0.80;0.80;;;8.50;99.90;;;;;;5020874;28;20292;-65
2022/09/22 05:11:48;;;;;;;0.70;0.70;;;8.50;99.90;;;;;;5022206;28;20202;-65
2022/09/22 05:14:16;;;;;;;0.40;0.40;;;8.50;99.90;;;;;;5020612;28;20731;-63
2022/09/22 05:16:43;;;;;;;0.70;0.70;;;8.50;99.90;;;;;;5017657;28;20586;-64
2022/09/22 05:19:10;;;;;;;0.60;0.60;;;8.50;99.90;;;;;;5040556;28;20264;-66
2022/09/22 05:21:38;;;;;;;0.63;0.63;;;8.50;99.90;;;;;;5018287;28;20206;-65
2022/09/22 05:24:05;;;;;;;0.77;0.77;;;8.40;99.90;;;;;;5039663;28;20228;-65
2022/09/22 05:26:32;;;;;;;1.27;0.80;;;8.30;99.90;;;;;;5030329;28;20205;-65
2022/09/22 05:28:59;;;;;;;0.83;0.83;;;8.30;99.90;;;;;;5015854;28;20609;-66
2022/09/22 05:31:26;;;;;;;1.00;0.90;;;8.30;99.90;;;;;;5022600;28;20292;-66
2022/09/22 05:33:53;;;;;;;0.70;0.70;;;8.30;99.90;;;;;;5020679;28;20217;-66
2022/09/22 05:36:19;;;;;;;0.80;0.80;;;8.20;99.90;;;;;;5032197;28;20212;-66
2022/09/22 05:38:48;;;;;;;0.80;0.80;;;8.30;99.90;;;;;;5032810;28;20300;-66
2022/09/22 05:41:14;;;;;;;0.90;0.90;;;8.30;99.90;;;;;;5025119;28;20675;-66
2022/09/22 05:43:41;;;;;;;0.87;0.87;;;8.30;99.90;;;;;;5033819;28;20271;-65
2022/09/22 05:46:09;;;;;;;0.80;0.80;;;8.30;99.90;;;;;;5016983;28;20617;-65
2022/09/22 05:48:36;;;;;;;0.90;0.90;;;8.30;99.90;;;;;;5016999;28;20208;-66
2022/09/22 05:51:03;;;;;;;1.23;1.17;;;8.30;99.90;;;;;;5017451;28;20201;-65
2022/09/22 05:53:30;;;;;;;0.70;0.70;;;8.40;99.90;;;;;;5028254;28;20265;-65
2022/09/22 05:55:58;;;;;;;0.90;0.90;;;8.40;99.90;;;;;;5025280;28;20210;-68
2022/09/22 05:58:25;;;;;;;0.80;0.80;;;8.40;99.90;;;;;;5021696;28;20205;-66
2022/09/22 06:00:55;;;;;;;0.90;0.90;;;8.40;99.90;;;;;;5022721;28;20677;-66
2022/09/22 06:03:22;;;;;;;0.90;0.90;;;8.40;99.90;;;;;;5023446;28;20228;-66
2022/09/22 06:05:49;;;;;;;1.50;1.10;;;8.40;99.90;;;;;;5024569;28;20211;-66
2022/09/22 06:08:16;;;;;;;0.90;0.90;;;8.40;99.90;;;;;;5023762;28;20209;-63
2022/09/22 06:10:47;;;;;;;1.17;0.80;;;8.50;99.90;;;;;;5024323;28;20212;-66
2022/09/22 06:13:16;;;;;;;1.10;0.87;;;8.50;99.90;;;;;;5024867;28;20312;-69
2022/09/22 06:15:47;;;;;;;0.77;0.77;;;8.60;99.90;;;;;;5021513;28;20371;-68
2022/09/22 06:18:16;;;;;;;0.83;0.83;;;8.60;99.90;;;;;;5032657;28;20216;-63
2022/09/22 06:20:44;;;;;;;0.80;0.80;;;8.70;99.90;;;;;;5027404;28;20545;-67
2022/09/22 06:23:12;;;;;;;0.70;0.70;;;8.90;99.90;;;;;;5031623;28;20331;-66
2022/09/22 06:25:39;;;;;;;0.90;0.90;;;8.90;99.90;;;;;;5027588;28;20288;-66
2022/09/22 06:28:08;;;;;;;0.77;0.77;;;8.90;99.90;;;;;;5025575;28;20683;-68
2022/09/22 06:30:38;;;;;;;0.97;0.97;;;9.00;99.90;;;;;;5027510;28;20726;-68
2022/09/22 06:33:05;;;;;;;0.93;0.93;;;9.00;99.90;;;;;;5013127;28;20833;-68
2022/09/22 06:35:35;;;;;;;1.03;1.03;;;9.10;99.90;;;;;;5026964;28;20674;-65
2022/09/22 06:38:02;;;;;;;1.00;1.00;;;9.20;99.90;;;;;;5032654;28;20685;-68
2022/09/22 06:40:31;;;;;;;1.03;1.00;;;9.20;99.90;;;;;;5028083;28;20207;-66
2022/09/22 06:42:58;;;;;;;1.20;1.20;;;9.20;99.90;;;;;;5027280;28;20224;-68
2022/09/22 06:45:25;;;;;;;1.00;1.00;;;9.20;99.90;;;;;;5029773;28;20291;-68
2022/09/22 06:47:57;;;;;;;1.00;1.00;;;9.20;99.90;;;;;;5027115;28;20674;-67
2022/09/22 06:50:29;;;;;;;1.10;1.10;;;9.30;99.90;;;;;;5030533;28;20208;-67
2022/09/22 06:52:58;;;;;;;1.23;1.23;;;9.30;99.90;;;;;;5021892;28;20248;-68
2022/09/22 06:55:25;;;;;;;1.10;1.10;;;9.40;99.90;;;;;;5031289;28;20207;-66
2022/09/22 06:57:52;;;;;;;1.30;1.30;;;9.40;99.90;;;;;;5023726;28;20719;-67
2022/09/22 07:00:19;;;;;;;1.20;1.10;;;9.40;99.90;;;;;;5027921;28;20568;-65
2022/09/22 07:02:46;;;;;;;1.47;1.37;;;9.50;99.90;;;;;;5026126;28;20221;-66
2022/09/22 07:05:19;;;;;;;1.30;1.30;;;9.60;99.90;;;;;;5029149;28;20225;-67
2022/09/22 07:07:46;;;;;;;1.47;1.37;;;9.70;99.90;;;;;;5028206;28;20201;-66
2022/09/22 07:10:13;;;;;;;1.10;1.10;;;9.70;99.90;;;;;;5030274;28;20209;-65
2022/09/22 07:12:40;;;;;;;1.00;1.00;;;9.80;99.90;;;;;;5026854;28;20243;-68
2022/09/22 07:15:08;;;;;;;0.90;0.90;;;9.80;99.90;;;;;;5016164;28;20204;-65
2022/09/22 07:17:35;;;;;;;0.90;0.90;;;9.90;99.90;;;;;;5014364;28;20265;-66
2022/09/22 07:20:04;;;;;;;1.00;1.00;;;10.10;99.90;;;;;;5022542;28;20209;-67
2022/09/22 07:22:33;;;;;;;1.37;1.10;;;10.20;99.90;;;;;;5029205;28;20298;-68
2022/09/22 07:25:01;;;;;;;0.80;0.80;;;10.20;99.90;;;;;;5025937;28;20225;-67
2022/09/22 07:27:27;;;;;;;1.33;1.10;;;10.30;99.90;;;;;;5029362;28;20247;-66
2022/09/22 07:29:56;;;;;;;0.83;0.83;;;10.50;99.90;;;;;;5024208;28;20208;-66
2022/09/22 07:32:23;;;;;;;1.00;1.00;;;10.60;99.90;;;;;;5020830;28;20714;-67
2022/09/22 07:34:51;;;;;;;0.90;0.90;;;10.70;99.90;;;;;;5016074;28;20833;-67
2022/09/22 07:37:18;;;;;;;1.10;1.00;;;10.80;99.90;;;;;;5042897;28;20228;-68
2022/09/22 07:39:46;;;;;;;0.90;0.90;;;10.80;99.90;;;;;;5043991;28;20545;-66
2022/09/22 07:42:13;;;;;;;1.03;1.03;;;10.90;99.90;;;;;;5039343;28;20204;-64
2022/09/22 07:50:06;;;;;;;1.07;1.07;;;11.20;99.90;;;;;;5029860;28;20211;-67
2022/09/22 07:52:33;;;;;;;0.87;0.87;;;11.30;99.90;;;;;;5026524;28;20304;-66
2022/09/22 07:55:01;;;;;;;1.43;1.00;;;11.40;99.90;;;;;;5031701;28;20591;-67
2022/09/22 07:57:32;;;;;;;1.20;1.10;;;11.50;99.90;;;;;;5026772;28;20231;-68
2022/09/22 07:59:59;;;;;;;1.00;1.00;;;11.60;99.90;;;;;;5023987;28;20196;-68
2022/09/22 08:02:27;;;;;;;1.10;1.00;;;11.70;99.90;;;;;;5015098;28;20314;-65
2022/09/22 08:05:01;;;;;;;1.10;1.00;;;11.90;99.90;;;;;;5012425;28;20232;-67
2022/09/22 08:07:30;;;;;;;1.00;1.00;;;12.00;99.90;;;;;;5025429;28;20213;-68
2022/09/22 08:09:57;;;;;;;1.60;1.30;;;12.20;99.90;;;;;;5018289;28;20239;-67
2022/09/22 08:12:27;;;;;;;0.90;0.90;;;12.30;99.90;;;;;;5023674;28;21599;-68
2022/09/22 08:14:56;;;;;;;1.10;1.10;;;12.40;99.90;;;;;;5018041;28;20706;-66
2022/09/22 08:17:23;;;;;;;1.10;1.10;;;12.60;99.90;;;;;;5022255;28;20209;-67
2022/09/22 08:19:50;;;;;;;1.00;1.00;;;12.70;99.90;;;;;;5019743;28;20288;-68
2022/09/22 08:22:17;;;;;;;1.30;1.30;;;12.90;99.90;;;;;;5021957;28;20201;-69
2022/09/22 08:24:44;;;;;;;1.30;1.30;;;13.00;99.90;;;;;;5022752;28;20216;-68
2022/09/22 08:27:11;;;;;;;1.20;1.10;;;13.00;99.90;;;;;;5020587;28;20677;-68
2022/09/22 08:29:39;;;;;;;1.10;1.10;;;13.10;99.90;;;;;;5024812;28;20304;-67
2022/09/22 08:32:06;;;;;;;1.17;1.17;;;13.30;99.90;;;;;;5014481;28;20209;-67
2022/09/22 08:34:33;;;;;;;1.10;1.10;;;13.30;99.90;;;;;;5023369;28;20236;-67
2022/09/22 08:37:00;;;;;;;1.17;1.10;;;13.50;99.90;;;;;;5030137;28;20200;-69
2022/09/22 08:39:27;;;;;;;1.20;1.20;;;13.50;99.90;;;;;;5018817;28;20231;-67
2022/09/22 08:42:07;;;;;;;1.20;1.20;;;13.60;99.90;;;;;;5017013;28;20205;-68
2022/09/22 08:44:39;;;;;;;1.20;1.20;;;13.80;99.90;;;;;;5015040;28;20221;-67
2022/09/22 08:47:13;;;;;;;1.40;1.30;;;14.00;99.90;;;;;;5017840;28;20292;-65
2022/09/22 08:52:36;;;;;;;1.27;1.27;;;14.10;99.90;;;;;;5019195;28;20228;-66
2022/09/22 08:55:03;;;;;;;1.63;1.53;;;14.20;99.90;;;;;;5014335;28;20223;-67
2022/09/22 08:57:55;;;;;;;1.83;1.73;;;14.30;99.90;;;;;;5015995;28;20224;-65
2022/09/22 09:00:25;;;;;;;1.60;1.50;;;14.40;99.90;;;;;;5016870;28;20213;-67
2022/09/22 09:03:13;;;;;;;1.43;1.43;;;14.40;99.90;;;;;;5015089;28;20312;-66
2022/09/22 09:05:59;;;;;;;1.60;1.50;;;14.50;99.90;;;;;;5017573;28;20695;-68
2022/09/22 09:08:38;;;;;;;1.30;1.30;;;14.70;99.90;;;;;;5014093;28;20689;-66
2022/09/22 09:11:19;;;;;;;1.10;1.10;;;14.80;99.90;;;;;;5014798;28;20209;-67
2022/09/22 09:14:01;;;;;;;3.17;1.47;;;14.80;99.90;;;;;;5013009;28;20256;-67
2022/09/22 09:16:47;;;;;;;1.50;1.43;;;14.90;99.90;;;;;;5015299;28;20554;-67
2022/09/22 09:19:18;;;;;;;1.37;1.37;;;15.00;99.90;;;;;;5011062;28;20201;-67
2022/09/22 09:21:50;;;;;;;1.30;1.30;;;15.20;99.90;;;;;;5014695;28;20232;-66
2022/09/22 09:24:29;;;;;;;1.37;1.27;;;15.20;99.90;;;;;;5024817;28;20289;-68
2022/09/22 09:27:06;;;;;;;1.10;1.10;;;15.30;99.90;;;;;;5020874;28;20200;-67
2022/09/22 09:29:41;;;;;;;1.10;1.10;;;15.40;99.90;;;;;;5021845;28;20205;-66
2022/09/22 09:32:17;;;;;;;1.03;1.03;;;15.50;99.90;;;;;;5015846;28;20389;-65
2022/09/22 09:34:46;;;;;;;1.00;1.00;;;15.60;99.90;;;;;;5012485;28;20220;-66
2022/09/22 09:37:16;;;;;;;1.00;1.00;;;15.70;99.90;;;;;;5015496;28;20201;-66
2022/09/22 09:39:45;;;;;;;1.10;1.10;;;15.80;99.90;;;;;;5011967;28;20205;-66
2022/09/22 09:42:18;;;;;;;0.80;0.80;;;15.80;99.90;;;;;;5013546;28;20256;-68
2022/09/22 09:44:52;;;;;;;1.70;1.00;;;16.00;99.90;;;;;;5009923;28;20315;-67
2022/09/22 09:47:28;;;;;;;0.90;0.90;;;16.10;99.90;;;;;;5011864;28;20307;-65
2022/09/22 09:49:55;;;;;;;2.03;1.10;;;16.20;99.90;;;;;;5006121;28;20204;-65
2022/09/22 09:52:25;;;;;;;0.83;0.83;;;16.20;99.90;;;;;;5006959;28;20230;-66
2022/09/22 09:54:53;;;;;;;2.20;1.17;;;16.00;99.90;;;;;;5006835;28;20572;-67
2022/09/22 09:57:21;;;;;;;0.90;0.90;;;16.20;99.90;;;;;;5006747;28;20256;-66
2022/09/22 10:03:12;;;;;;;0.87;0.87;;;16.40;99.90;;;;;;5010734;28;20244;-67
2022/09/22 10:05:39;;;;;;;0.70;0.70;;;16.50;99.90;;;;;;4998042;28;20563;-65
2022/09/22 10:08:15;;;;;;;0.93;0.93;;;16.60;99.90;;;;;;5002602;28;20210;-66
2022/09/22 10:10:42;;;;;;;0.70;0.70;;;16.80;99.90;;;;;;5000832;28;20250;-66
2022/09/22 10:13:30;;;;;;;0.70;0.70;;;16.90;99.90;;;;;;5003756;28;20230;-67
2022/09/22 10:16:03;;;;;;;0.60;0.60;;;16.90;99.90;;;;;;5008729;28;20225;-65
2022/09/22 10:18:36;;;;;;;0.70;0.70;;;16.90;99.90;;;;;;5002352;28;20272;-65
2022/09/22 10:21:06;;;;;;;0.80;0.80;;;17.10;99.90;;;;;;5001068;28;20206;-66
2022/09/22 10:23:34;;;;;;;0.70;0.70;;;17.20;99.90;;;;;;5001525;28;20221;-65
2022/09/22 10:26:18;;;;;;;0.55;0.55;;;17.40;99.90;;;;;;4998667;28;20277;-67
2022/09/22 10:28:49;;;;;;;0.80;0.80;;;17.40;99.90;;;;;;4999958;28;20210;-65
2022/09/22 10:31:23;;;;;;;0.70;0.70;;;17.40;99.90;;;;;;5020367;28;20201;-67
2022/09/22 10:33:59;;;;;;;0.70;0.70;;;17.50;99.90;;;;;;5015623;28;20772;-67
2022/09/22 10:36:28;;;;;;;0.70;0.70;;;17.60;99.90;;;;;;5031581;28;20735;-67
2022/09/22 10:38:55;;;;;;;0.60;0.60;;;17.70;99.90;;;;;;5027966;28;20683;-67
2022/09/22 10:41:26;;;;;;;0.80;0.80;;;17.80;99.90;;;;;;5023249;28;20639;-67
2022/09/22 10:43:56;;;;;;;0.50;0.50;;;18.00;99.90;;;;;;5030626;28;20274;-67
2022/09/22 10:46:54;;;;;;;0.60;0.60;;;18.10;99.90;;;;;;5025067;28;20227;-66
2022/09/22 10:49:40;;;;;;;0.60;0.60;;;18.10;99.90;;;;;;5028523;28;20205;-67
2022/09/22 10:52:17;;;;;;;0.40;0.40;;;18.00;99.90;;;;;;5028614;28;20207;-67
2022/09/22 10:55:09;;;;;;;0.63;0.63;;;17.90;99.90;;;;;;5011562;28;20293;-67
2022/09/22 10:57:56;;;;;;;0.80;0.80;;;18.00;99.90;;;;;;5016351;28;20303;-65
2022/09/22 11:00:25;;;;;;;0.67;0.67;;;18.20;99.90;;;;;;5016503;28;20256;-67
2022/09/22 11:03:22;;;;;;;0.70;0.70;;;18.10;99.90;;;;;;5008869;28;20230;-67
2022/09/22 11:12:17;;;;;;;0.40;0.40;;;18.10;99.90;;;;;;5003868;28;20268;-66
2022/09/22 11:15:07;;;;;;;0.60;0.60;;;18.30;99.90;;;;;;5019830;28;20295;-68
2022/09/22 11:17:53;;;;;;;0.57;0.57;;;18.30;99.90;;;;;;5023163;28;20209;-67
2022/09/22 11:20:31;;;;;;;0.60;0.60;;;18.10;99.90;;;;;;5027311;28;20223;-65
2022/09/22 11:23:26;;;;;;;1.40;0.80;;;18.40;99.90;;;;;;5005345;28;20581;-67
2022/09/22 11:26:09;;;;;;;0.83;0.77;;;18.60;99.90;;;;;;5003382;28;20563;-65
2022/09/22 11:28:51;;;;;;;0.50;0.50;;;18.80;99.90;;;;;;5004519;28;20347;-66
2022/09/22 11:31:36;;;;;;;0.73;0.73;;;19.00;99.90;;;;;;5001326;28;20398;-66
2022/09/22 11:34:21;;;;;;;0.80;0.80;;;19.00;99.90;;;;;;5004659;28;20228;-66
2022/09/22 11:36:54;;;;;;;0.67;0.67;;;19.10;99.90;;;;;;4999316;28;20210;-66
2022/09/22 11:39:41;;;;;;;0.80;0.80;;;19.10;99.90;;;;;;5000472;28;20288;-66
2022/09/22 11:42:20;;;;;;;0.87;0.87;;;19.00;99.90;;;;;;4997516;28;20235;-66
2022/09/22 11:45:01;;;;;;;0.70;0.70;;;18.90;99.90;;;;;;5004046;28;20218;-67
2022/09/22 11:47:47;;;;;;;0.63;0.63;;;19.00;99.90;;;;;;5004921;28;20256;-66
2022/09/22 11:50:42;;;;;;;0.70;0.70;;;19.20;99.90;;;;;;4992471;28;20638;-66
2022/09/22 11:53:29;;;;;;;0.60;0.60;;;19.40;99.90;;;;;;5001798;28;20301;-67
2022/09/22 11:56:20;;;;;;;0.80;0.80;;;19.20;99.90;;;;;;5002779;28;20263;-66
2022/09/22 11:58:49;;;;;;;0.63;0.63;;;19.40;99.90;;;;;;4991041;28;20210;-67
2022/09/22 12:01:22;;;;;;;0.80;0.80;;;19.50;99.90;;;;;;4999287;28;20272;-66
2022/09/22 12:03:54;;;;;;;0.70;0.70;;;19.50;99.90;;;;;;5000590;28;20300;-66
2022/09/22 12:06:25;;;;;;;0.50;0.50;;;19.60;99.90;;;;;;5003596;28;20213;-67
2022/09/22 12:08:56;;;;;;;0.60;0.60;;;19.60;99.90;;;;;;5002301;28;20721;-66
2022/09/22 12:11:27;;;;;;;0.93;0.60;;;19.70;99.90;;;;;;5002416;28;20201;-66
2022/09/22 12:13:58;;;;;;;2.10;0.67;;;19.70;99.90;;;;;;5004256;28;20321;-64
2022/09/22 12:16:38;;;;;;;0.53;0.53;;;19.80;99.90;;;;;;4999567;28;20225;-66
2022/09/22 12:19:14;;;;;;;0.70;0.70;;;20.00;99.90;;;;;;5002472;28;20253;-66
2022/09/22 12:21:50;;;;;;;0.67;0.67;;;19.90;99.90;;;;;;5003364;28;20718;-66
2022/09/22 12:24:17;;;;;;;0.50;0.50;;;19.80;99.90;;;;;;5006017;28;20229;-64
2022/09/22 12:26:47;;;;;;;0.60;0.60;;;19.80;99.90;;;;;;5023308;28;20228;-65
2022/09/22 12:29:27;;;;;;;0.60;0.60;;;19.90;99.90;;;;;;5010199;28;20209;-65
2022/09/22 12:31:56;;;;;;;0.90;0.90;;;20.00;99.90;;;;;;4998995;28;20241;-64
2022/09/22 12:34:25;;;;;;;0.90;0.90;;;20.10;99.90;;;;;;5000663;28;20300;-65
2022/09/22 12:36:55;;;;;;;0.70;0.70;;;20.00;99.90;;;;;;4997235;28;20198;-64
2022/09/22 12:39:24;;;;;;;0.60;0.60;;;20.00;99.90;;;;;;5008711;28;20570;-65
2022/09/22 12:41:59;;;;;;;0.63;0.63;;;20.00;99.90;;;;;;5013985;28;20307;-64
2022/09/22 12:44:29;;;;;;;0.70;0.70;;;20.10;99.90;;;;;;5013279;28;20252;-65
2022/09/22 12:47:01;;;;;;;0.80;0.80;;;20.30;99.90;;;;;;5016627;28;20229;-65
2022/09/22 12:49:28;;;;;;;0.85;0.82;;;20.30;99.90;;;;;;5010670;28;20205;-65
2022/09/22 12:51:56;;;;;;;0.87;0.87;;;20.40;99.90;;;;;;5013359;28;20717;-65
2022/09/22 12:54:47;;;;;;;0.90;0.90;;;20.50;99.90;;;;;;5010157;28;20224;-66
2022/09/22 12:57:43;;;;;;;1.05;0.80;;;20.60;99.90;;;;;;5011586;28;20229;-65
2022/09/22 13:00:21;;;;;;;0.80;0.80;;;20.50;99.90;;;;;;5009329;28;20224;-65
2022/09/22 13:02:50;;;;;;;0.80;0.80;;;20.30;99.90;;;;;;5012315;28;20221;-66
2022/09/22 13:05:33;;;;;;;0.90;0.90;;;20.40;99.90;;;;;;5013675;28;20222;-65
2022/09/22 13:08:00;;;;;;;0.60;0.60;;;20.60;99.90;;;;;;5011285;28;20596;-66
2022/09/22 13:10:50;;;;;;;0.90;0.90;;;20.60;99.90;;;;;;5009999;28;20202;-65
2022/09/22 13:13:41;;;;;;;0.73;0.73;;;20.60;99.90;;;;;;5011462;28;20259;-65
2022/09/22 13:16:35;;;;;;;0.60;0.60;;;20.70;99.90;;;;;;5013556;28;20233;-66
2022/09/22 13:19:03;;;;;;;0.80;0.80;;;20.70;99.90;;;;;;5007596;28;20218;-65
2022/09/22 13:21:33;;;;;;;0.63;0.63;;;20.80;99.90;;;;;;5009351;28;20201;-65
2022/09/22 13:24:01;;;;;;;0.60;0.60;;;20.80;99.90;;;;;;5009570;28;20622;-65
2022/09/22 13:26:30;;;;;;;0.73;0.73;;;20.90;99.90;;;;;;5012532;28;20284;-66
2022/09/22 13:29:05;;;;;;;0.70;0.63;;;20.80;99.90;;;;;;5017459;28;20198;-64
2022/09/22 13:31:43;;;;;;;0.53;0.53;;;20.90;99.90;;;;;;5012847;28;20204;-66